Shell Lake, Canada
Current Conditions -  °F | °C
As of 1:00 AM on Friday 31 Oct 2014 (Local Time) from CYPA Reporting Station
Clear Clear  
Wind Chill: -9°   Ceiling: Unl
Heat Index: -3°   Visibility: 15mi
Dew Point: -5°   Wind: 12mph
Humidity: 86%   Direction: 180°S
Pressure: 30.32"   Gusts: NA
Location:  53.3°N, 107.05°W
Report Text: CYPA 310700Z 18010KT 140V210 15SM SKC M03/M05 A3032 RMK SLP294
Loading
Personal Weather Stations






























Interactive Weather Map
Tropical Storm Tracking
New forecast layout! Learn more

10-Day Weather Forecast

Advertisements
Track Severe Weather on mobile